Time;durP1;ratioP1;P1;durP2;ratioP2;P2;SDS_P1;SDS_P2;PMS_P1;PMS_P2;Temp;Humidity;BMP_temperature;BMP_pressure;BME280_temperature;BME280_humidity;BME280_pressure;Samples;Min_cycle;Max_cycle;Signal;HPM_P1;HPM_P2
2024/01/24 00:01:37;;;;;;;3.00;1.20;;;;;;;;;;4981840;28;20030;-83
2024/01/24 00:04:03;;;;;;;2.67;1.50;;;;;;;;;;4997116;28;20046;-82
2024/01/24 00:06:28;;;;;;;1.83;1.42;;;;;;;;;;4965339;28;20429;-84
2024/01/24 00:08:54;;;;;;;3.05;1.45;;;;;;;;;;4997891;28;20053;-83
2024/01/24 00:11:20;;;;;;;2.70;1.48;;;;;;;;;;4998280;28;20034;-83
2024/01/24 00:13:46;;;;;;;3.25;1.73;;;;;;;;;;4996059;28;20034;-83
2024/01/24 00:16:12;;;;;;;2.90;1.50;;;;;;;;;;4997421;28;20032;-83
2024/01/24 00:18:37;;;;;;;2.20;1.35;;;;;;;;;;4997761;28;20403;-83
2024/01/24 00:21:03;;;;;;;3.58;1.63;;;;;;;;;;4994351;28;20081;-84
2024/01/24 00:23:28;;;;;;;3.83;1.50;;;;;;;;;;4996165;28;20034;-84
2024/01/24 00:25:54;;;;;;;1.60;1.25;;;;;;;;;;4963507;28;20049;-81
2024/01/24 00:28:21;;;;;;;2.38;1.10;;;;;;;;;;4980496;28;20113;-84
2024/01/24 00:30:46;;;;;;;3.28;1.30;;;;;;;;;;4987921;28;20104;-82
2024/01/24 00:33:12;;;;;;;1.70;1.30;;;;;;;;;;4992834;28;20499;-83
2024/01/24 00:35:37;;;;;;;1.73;1.08;;;;;;;;;;4976024;28;20038;-84
2024/01/24 00:38:03;;;;;;;1.73;1.13;;;;;;;;;;4994639;28;20125;-85
2024/01/24 00:40:28;;;;;;;1.95;1.20;;;;;;;;;;4962310;28;20026;-84
2024/01/24 00:42:54;;;;;;;2.38;1.30;;;;;;;;;;4992182;28;20035;-83
2024/01/24 00:45:19;;;;;;;4.72;1.70;;;;;;;;;;4994415;28;20022;-83
2024/01/24 00:47:45;;;;;;;1.70;1.30;;;;;;;;;;4993055;28;20046;-84
2024/01/24 00:50:10;;;;;;;2.08;1.27;;;;;;;;;;4994708;28;20117;-82
2024/01/24 00:52:36;;;;;;;2.38;1.40;;;;;;;;;;4994839;28;20407;-83
2024/01/24 00:55:01;;;;;;;3.70;1.70;;;;;;;;;;4991343;28;20038;-84
2024/01/24 00:57:27;;;;;;;2.22;1.23;;;;;;;;;;4992678;28;20027;-83
2024/01/24 00:59:52;;;;;;;2.80;1.48;;;;;;;;;;4994202;28;20129;-83
2024/01/24 01:02:18;;;;;;;1.80;1.10;;;;;;;;;;4997610;28;20026;-81
2024/01/24 01:04:43;;;;;;;2.58;1.15;;;;;;;;;;4999558;28;20042;-84
2024/01/24 01:07:10;;;;;;;2.30;1.10;;;;;;;;;;4996217;28;20035;-82
2024/01/24 01:09:35;;;;;;;2.35;1.27;;;;;;;;;;4979073;28;20026;-82
2024/01/24 01:12:02;;;;;;;2.78;1.15;;;;;;;;;;4978710;28;20412;-83
2024/01/24 01:14:27;;;;;;;2.83;1.40;;;;;;;;;;4993813;28;20030;-84
2024/01/24 01:16:53;;;;;;;2.35;1.20;;;;;;;;;;4961613;28;20049;-83
2024/01/24 01:19:19;;;;;;;2.03;1.30;;;;;;;;;;4995408;28;20034;-84
2024/01/24 01:21:45;;;;;;;3.00;1.42;;;;;;;;;;4995735;28;20049;-83
2024/01/24 01:24:10;;;;;;;2.17;1.30;;;;;;;;;;4990891;28;20039;-83
2024/01/24 01:26:36;;;;;;;1.85;1.20;;;;;;;;;;4994924;28;20620;-83
2024/01/24 01:29:02;;;;;;;2.10;1.27;;;;;;;;;;4993942;28;20113;-84
2024/01/24 01:31:27;;;;;;;2.58;1.27;;;;;;;;;;4994478;28;20560;-84
2024/01/24 01:33:53;;;;;;;1.70;1.23;;;;;;;;;;4995440;28;20392;-84
2024/01/24 01:36:19;;;;;;;1.50;1.17;;;;;;;;;;4992319;28;20038;-81
2024/01/24 01:38:45;;;;;;;1.95;1.30;;;;;;;;;;4977390;28;20072;-83
2024/01/24 01:41:10;;;;;;;2.40;1.40;;;;;;;;;;4992535;28;20037;-83
2024/01/24 01:43:35;;;;;;;1.92;1.20;;;;;;;;;;4990468;28;20029;-84
2024/01/24 01:46:06;;;;;;;1.98;1.05;;;;;;;;;;4990273;28;20034;-83
2024/01/24 01:48:33;;;;;;;2.38;1.30;;;;;;;;;;4995352;28;20041;-84
2024/01/24 01:51:00;;;;;;;2.08;1.20;;;;;;;;;;4993856;28;20041;-83
2024/01/24 01:53:26;;;;;;;2.50;1.27;;;;;;;;;;4994688;28;20034;-82
2024/01/24 01:55:53;;;;;;;1.80;1.20;;;;;;;;;;4976190;28;20034;-84
2024/01/24 01:58:19;;;;;;;1.27;0.90;;;;;;;;;;4990324;28;20034;-83
2024/01/24 02:00:47;;;;;;;1.55;0.93;;;;;;;;;;4975641;28;20045;-83
2024/01/24 02:03:13;;;;;;;1.50;0.80;;;;;;;;;;4991775;28;20038;-83
2024/01/24 02:05:39;;;;;;;1.40;1.08;;;;;;;;;;4990011;28;20134;-82
2024/01/24 02:08:06;;;;;;;1.65;0.90;;;;;;;;;;4975941;28;20030;-84
2024/01/24 02:10:31;;;;;;;1.80;0.90;;;;;;;;;;4994166;28;20040;-83
2024/01/24 02:12:57;;;;;;;3.33;1.10;;;;;;;;;;4992438;28;20030;-83
2024/01/24 02:15:22;;;;;;;1.27;0.95;;;;;;;;;;4992856;28;20407;-83
2024/01/24 02:17:48;;;;;;;3.83;1.20;;;;;;;;;;4990805;28;20034;-82
2024/01/24 02:20:15;;;;;;;1.33;0.90;;;;;;;;;;4989600;28;20042;-81
2024/01/24 02:22:40;;;;;;;1.52;1.10;;;;;;;;;;4979807;28;20116;-83
2024/01/24 02:25:06;;;;;;;3.80;0.90;;;;;;;;;;4992351;28;20054;-82
2024/01/24 02:27:32;;;;;;;1.35;1.05;;;;;;;;;;4990495;28;20423;-84
2024/01/24 02:29:57;;;;;;;1.73;0.98;;;;;;;;;;4992149;28;20038;-84
2024/01/24 02:32:23;;;;;;;1.55;0.95;;;;;;;;;;4994807;28;20026;-84
2024/01/24 02:34:48;;;;;;;1.13;0.80;;;;;;;;;;4993356;28;20084;-82
2024/01/24 02:37:15;;;;;;;0.93;0.80;;;;;;;;;;4993620;28;20038;-84
2024/01/24 02:39:41;;;;;;;2.90;0.88;;;;;;;;;;4992388;28;20037;-84
2024/01/24 02:42:07;;;;;;;2.03;0.73;;;;;;;;;;4973696;28;20019;-83
2024/01/24 02:44:33;;;;;;;0.98;0.77;;;;;;;;;;4991336;28;20089;-83
2024/01/24 02:46:58;;;;;;;2.75;0.90;;;;;;;;;;4988113;28;20038;-85
2024/01/24 02:49:24;;;;;;;1.40;0.80;;;;;;;;;;4989099;28;20057;-82
2024/01/24 02:51:49;;;;;;;1.08;0.80;;;;;;;;;;4991328;28;20694;-83
2024/01/24 02:54:15;;;;;;;1.63;0.90;;;;;;;;;;4992460;28;20045;-83
2024/01/24 02:56:40;;;;;;;1.13;0.75;;;;;;;;;;4992723;28;20420;-82
2024/01/24 02:59:06;;;;;;;2.53;0.82;;;;;;;;;;4991996;28;20117;-83
2024/01/24 03:01:31;;;;;;;1.73;0.93;;;;;;;;;;4990420;28;20481;-82
2024/01/24 03:03:57;;;;;;;1.02;0.88;;;;;;;;;;4993247;28;20026;-82
2024/01/24 03:06:22;;;;;;;1.25;0.77;;;;;;;;;;4995388;28;20488;-83
2024/01/24 03:08:49;;;;;;;1.65;0.80;;;;;;;;;;4984390;28;20538;-84
2024/01/24 03:11:15;;;;;;;1.33;0.70;;;;;;;;;;4991396;28;20538;-82
2024/01/24 03:13:41;;;;;;;1.45;0.98;;;;;;;;;;4993277;28;20038;-85
2024/01/24 03:16:07;;;;;;;1.35;0.80;;;;;;;;;;4984014;28;20030;-85
2024/01/24 03:18:36;;;;;;;1.67;0.80;;;;;;;;;;4992657;28;20050;-85
2024/01/24 03:21:01;;;;;;;1.10;0.80;;;;;;;;;;4991621;28;20038;-81
2024/01/24 03:23:28;;;;;;;1.20;0.90;;;;;;;;;;4992014;28;20041;-82
2024/01/24 03:25:53;;;;;;;1.80;1.02;;;;;;;;;;4991895;28;20137;-80
2024/01/24 03:28:19;;;;;;;1.40;1.00;;;;;;;;;;4974848;28;20115;-83
2024/01/24 03:30:44;;;;;;;1.10;0.70;;;;;;;;;;4989038;28;20026;-81
2024/01/24 03:33:10;;;;;;;1.30;0.90;;;;;;;;;;4988935;28;20070;-84
2024/01/24 03:35:35;;;;;;;1.10;0.77;;;;;;;;;;4992268;28;20524;-83
2024/01/24 03:38:00;;;;;;;1.13;0.88;;;;;;;;;;4991633;28;20093;-83
2024/01/24 03:40:26;;;;;;;1.58;0.93;;;;;;;;;;4996992;28;20042;-82
2024/01/24 03:42:51;;;;;;;0.95;0.77;;;;;;;;;;4991562;28;20496;-83
2024/01/24 03:45:17;;;;;;;2.20;1.00;;;;;;;;;;4990881;28;20053;-84
2024/01/24 03:47:42;;;;;;;2.25;1.00;;;;;;;;;;4992276;28;20038;-82
2024/01/24 03:50:08;;;;;;;2.55;1.00;;;;;;;;;;4980474;28;20374;-84
2024/01/24 03:52:33;;;;;;;1.65;0.90;;;;;;;;;;4976108;28;20045;-84
2024/01/24 03:54:59;;;;;;;2.10;1.00;;;;;;;;;;4991100;28;20039;-85
2024/01/24 03:57:24;;;;;;;1.00;0.80;;;;;;;;;;4992106;28;20044;-81
2024/01/24 03:59:50;;;;;;;1.77;0.90;;;;;;;;;;4991609;28;20044;-84
2024/01/24 04:02:15;;;;;;;2.33;1.05;;;;;;;;;;4992076;28;20066;-83
2024/01/24 04:04:41;;;;;;;2.78;1.08;;;;;;;;;;4991265;28;20035;-83
2024/01/24 04:07:06;;;;;;;1.73;1.00;;;;;;;;;;4991256;28;20030;-83
2024/01/24 04:09:32;;;;;;;1.80;1.15;;;;;;;;;;4991486;28;20085;-82
2024/01/24 04:11:57;;;;;;;2.28;1.05;;;;;;;;;;4990755;28;20045;-82
2024/01/24 04:14:23;;;;;;;1.60;1.00;;;;;;;;;;4990385;28;20034;-83
2024/01/24 04:16:48;;;;;;;1.00;0.77;;;;;;;;;;4993047;28;20674;-85
2024/01/24 04:19:14;;;;;;;1.30;0.80;;;;;;;;;;4994384;28;20026;-82
2024/01/24 04:21:41;;;;;;;1.27;0.90;;;;;;;;;;4994442;28;20030;-82
2024/01/24 04:24:07;;;;;;;1.50;1.00;;;;;;;;;;4991156;28;20037;-84
2024/01/24 04:26:32;;;;;;;1.23;0.80;;;;;;;;;;4991853;28;20047;-83
2024/01/24 04:28:58;;;;;;;1.13;0.88;;;;;;;;;;4989450;28;20039;-82
2024/01/24 04:31:23;;;;;;;2.10;0.90;;;;;;;;;;4990128;28;20166;-81
2024/01/24 04:33:49;;;;;;;1.52;0.98;;;;;;;;;;4990573;28;20035;-82
2024/01/24 04:36:14;;;;;;;0.88;0.80;;;;;;;;;;4989905;28;20463;-83
2024/01/24 04:38:40;;;;;;;1.27;0.93;;;;;;;;;;4991093;28;20045;-82
2024/01/24 04:41:08;;;;;;;1.33;0.80;;;;;;;;;;4974312;28;20481;-83
2024/01/24 04:43:34;;;;;;;1.58;1.05;;;;;;;;;;4992706;28;20492;-84
2024/01/24 04:45:59;;;;;;;1.60;1.00;;;;;;;;;;4978013;28;20137;-83
2024/01/24 04:48:25;;;;;;;1.70;0.95;;;;;;;;;;4994623;28;20117;-84
2024/01/24 04:50:50;;;;;;;1.48;0.90;;;;;;;;;;4993429;28;20515;-82
2024/01/24 04:53:16;;;;;;;1.30;0.82;;;;;;;;;;4993297;28;20030;-84
2024/01/24 04:55:41;;;;;;;1.58;1.00;;;;;;;;;;4990353;28;20104;-82
2024/01/24 04:58:07;;;;;;;1.00;0.90;;;;;;;;;;4995202;28;20035;-83
2024/01/24 05:00:32;;;;;;;1.98;0.90;;;;;;;;;;4999729;28;20038;-83
2024/01/24 05:02:58;;;;;;;1.83;0.95;;;;;;;;;;4999343;28;20041;-84
2024/01/24 05:05:23;;;;;;;1.60;1.00;;;;;;;;;;4998602;28;20120;-86
2024/01/24 05:07:49;;;;;;;1.63;0.93;;;;;;;;;;4998268;28;20030;-84
2024/01/24 05:10:14;;;;;;;1.55;0.93;;;;;;;;;;4994713;28;20046;-84
2024/01/24 05:12:40;;;;;;;1.77;1.00;;;;;;;;;;4997302;28;20396;-86
2024/01/24 05:15:08;;;;;;;1.92;1.00;;;;;;;;;;4998503;28;20075;-86
2024/01/24 05:17:33;;;;;;;2.72;1.40;;;;;;;;;;4987145;28;20430;-84
2024/01/24 05:19:59;;;;;;;2.45;1.35;;;;;;;;;;4990242;28;20576;-85
2024/01/24 05:22:24;;;;;;;1.25;1.02;;;;;;;;;;4998622;28;20030;-85
2024/01/24 05:24:50;;;;;;;3.97;2.00;;;;;;;;;;4999306;28;20042;-84
2024/01/24 05:27:16;;;;;;;1.83;1.40;;;;;;;;;;4998157;28;20062;-85
2024/01/24 05:29:45;;;;;;;2.25;1.50;;;;;;;;;;4998111;28;20042;-84
2024/01/24 05:32:10;;;;;;;3.80;2.08;;;;;;;;;;4998399;28;20034;-83
2024/01/24 05:34:36;;;;;;;4.63;1.50;;;;;;;;;;4981797;28;20080;-84
2024/01/24 05:37:01;;;;;;;2.63;1.63;;;;;;;;;;4996579;28;20034;-86
2024/01/24 05:39:27;;;;;;;1.45;1.20;;;;;;;;;;4996954;28;20038;-83
2024/01/24 05:41:52;;;;;;;2.00;1.20;;;;;;;;;;4996474;28;20045;-84
2024/01/24 05:44:18;;;;;;;1.35;1.02;;;;;;;;;;4997274;28;20105;-84
2024/01/24 05:46:43;;;;;;;2.13;1.20;;;;;;;;;;4994526;28;20069;-78
2024/01/24 05:49:09;;;;;;;1.50;1.10;;;;;;;;;;4995675;28;20077;-84
2024/01/24 05:51:34;;;;;;;2.42;1.30;;;;;;;;;;4997816;28;20121;-84
2024/01/24 05:54:00;;;;;;;2.83;1.60;;;;;;;;;;4988931;28;20470;-85
2024/01/24 05:56:25;;;;;;;2.38;1.50;;;;;;;;;;4993943;28;20062;-84
2024/01/24 05:58:51;;;;;;;1.83;1.20;;;;;;;;;;4979719;28;20027;-84
2024/01/24 06:01:16;;;;;;;2.35;1.48;;;;;;;;;;4997506;28;20064;-82
2024/01/24 06:03:42;;;;;;;2.60;1.50;;;;;;;;;;4996246;28;20595;-85
2024/01/24 06:06:07;;;;;;;2.35;1.27;;;;;;;;;;4985025;28;20035;-83
2024/01/24 06:08:33;;;;;;;2.58;1.40;;;;;;;;;;4994794;28;20038;-84
2024/01/24 06:10:58;;;;;;;2.33;1.00;;;;;;;;;;4978557;28;20128;-85
2024/01/24 06:13:24;;;;;;;1.48;1.00;;;;;;;;;;4994614;28;20535;-86
2024/01/24 06:15:51;;;;;;;1.50;1.08;;;;;;;;;;4993408;28;20385;-85
2024/01/24 06:18:16;;;;;;;1.88;1.20;;;;;;;;;;4995021;28;20044;-84
2024/01/24 06:20:42;;;;;;;2.22;1.25;;;;;;;;;;4980388;28;20121;-86
2024/01/24 06:23:08;;;;;;;1.77;1.00;;;;;;;;;;4995975;28;20027;-85
2024/01/24 06:25:33;;;;;;;1.25;0.95;;;;;;;;;;4980032;28;20039;-85
2024/01/24 06:27:58;;;;;;;1.70;1.20;;;;;;;;;;4995477;28;20038;-83
2024/01/24 06:30:24;;;;;;;1.70;1.20;;;;;;;;;;4994019;28;20038;-84
2024/01/24 06:32:51;;;;;;;2.83;1.02;;;;;;;;;;4995143;28;20030;-84
2024/01/24 06:35:16;;;;;;;2.22;1.20;;;;;;;;;;4991160;28;20504;-85
2024/01/24 06:37:42;;;;;;;1.35;1.10;;;;;;;;;;4992612;28;20045;-83
2024/01/24 06:40:09;;;;;;;1.50;1.15;;;;;;;;;;4990290;28;20042;-84
2024/01/24 06:42:36;;;;;;;2.05;1.17;;;;;;;;;;4995899;28;20034;-85
2024/01/24 06:45:01;;;;;;;2.95;1.05;;;;;;;;;;4977487;28;20049;-84
2024/01/24 06:47:27;;;;;;;3.72;1.48;;;;;;;;;;4995500;28;20393;-83
2024/01/24 06:49:52;;;;;;;2.25;1.20;;;;;;;;;;4995496;28;20042;-84
2024/01/24 06:52:18;;;;;;;2.22;1.30;;;;;;;;;;4995078;28;20030;-85
2024/01/24 06:54:43;;;;;;;1.40;1.05;;;;;;;;;;4995348;28;20042;-83
2024/01/24 06:57:09;;;;;;;2.92;1.20;;;;;;;;;;4981111;28;20055;-83
2024/01/24 06:59:34;;;;;;;1.67;1.10;;;;;;;;;;4991639;28;20041;-81
2024/01/24 07:02:00;;;;;;;3.17;1.35;;;;;;;;;;4993549;28;20046;-83
2024/01/24 07:04:26;;;;;;;3.10;1.30;;;;;;;;;;4995591;28;20038;-84
2024/01/24 07:06:51;;;;;;;2.28;1.20;;;;;;;;;;4975092;28;20038;-83
2024/01/24 07:09:17;;;;;;;2.78;1.40;;;;;;;;;;4975384;28;20054;-81
2024/01/24 07:11:43;;;;;;;4.60;2.75;;;;;;;;;;4992642;28;20041;-82
2024/01/24 07:14:08;;;;;;;3.13;1.80;;;;;;;;;;4992818;28;20496;-83
2024/01/24 07:16:34;;;;;;;1.75;1.30;;;;;;;;;;4992707;28;20053;-84
2024/01/24 07:18:59;;;;;;;3.90;2.00;;;;;;;;;;4995007;28;20095;-83
2024/01/24 07:21:25;;;;;;;1.88;1.30;;;;;;;;;;4989019;28;20035;-85
2024/01/24 07:23:51;;;;;;;2.08;1.20;;;;;;;;;;4991045;28;20058;-85
2024/01/24 07:26:16;;;;;;;2.70;1.20;;;;;;;;;;4972894;28;20046;-81
2024/01/24 07:28:42;;;;;;;2.28;1.30;;;;;;;;;;4989928;28;20038;-83
2024/01/24 07:31:07;;;;;;;1.65;1.20;;;;;;;;;;4990788;28;20034;-85
2024/01/24 07:33:33;;;;;;;1.48;1.00;;;;;;;;;;4995040;28;20034;-85
2024/01/24 07:35:58;;;;;;;1.45;0.95;;;;;;;;;;4991709;28;20061;-86
2024/01/24 07:38:24;;;;;;;2.80;1.20;;;;;;;;;;4989326;28;20083;-82
2024/01/24 07:40:49;;;;;;;1.20;0.90;;;;;;;;;;4973960;28;20273;-86
2024/01/24 07:43:15;;;;;;;1.75;0.93;;;;;;;;;;4991383;28;20040;-84
2024/01/24 07:45:41;;;;;;;1.52;0.98;;;;;;;;;;4992444;28;20043;-86
2024/01/24 07:48:13;;;;;;;1.77;0.88;;;;;;;;;;4986652;28;20042;-84
2024/01/24 07:50:41;;;;;;;2.40;1.07;;;;;;;;;;4993023;28;20030;-83
2024/01/24 07:53:06;;;;;;;1.40;0.80;;;;;;;;;;4976916;28;20030;-85
2024/01/24 07:55:32;;;;;;;2.08;0.93;;;;;;;;;;4994123;28;20385;-86
2024/01/24 07:57:57;;;;;;;1.05;0.80;;;;;;;;;;4992453;28;20045;-83
2024/01/24 08:00:26;;;;;;;0.88;0.70;;;;;;;;;;4994321;28;20045;-85
2024/01/24 08:02:51;;;;;;;1.45;0.80;;;;;;;;;;4974428;28;20038;-82
2024/01/24 08:05:18;;;;;;;0.90;0.70;;;;;;;;;;4992057;28;20050;-83
2024/01/24 08:07:43;;;;;;;1.48;0.70;;;;;;;;;;4991845;28;20038;-83
2024/01/24 08:10:12;;;;;;;1.50;0.88;;;;;;;;;;4992584;28;20035;-82
2024/01/24 08:12:38;;;;;;;1.55;0.70;;;;;;;;;;4993593;28;20034;-85
2024/01/24 08:15:08;;;;;;;0.82;0.73;;;;;;;;;;4992873;28;20038;-85
2024/01/24 08:17:34;;;;;;;0.90;0.70;;;;;;;;;;4974009;28;20109;-85
2024/01/24 08:20:02;;;;;;;1.77;0.80;;;;;;;;;;4995127;28;20030;-82
2024/01/24 08:22:29;;;;;;;2.65;0.95;;;;;;;;;;4995706;28;20085;-83
2024/01/24 08:24:54;;;;;;;0.85;0.60;;;;;;;;;;4994451;28;20073;-82
2024/01/24 08:27:20;;;;;;;1.02;0.80;;;;;;;;;;4996763;28;20038;-82
2024/01/24 08:29:45;;;;;;;1.42;0.80;;;;;;;;;;4962744;28;20042;-84
2024/01/24 08:32:11;;;;;;;1.50;0.77;;;;;;;;;;4993197;28;20030;-84
2024/01/24 08:34:37;;;;;;;1.13;0.70;;;;;;;;;;4977198;28;20042;-85
2024/01/24 08:37:03;;;;;;;0.82;0.70;;;;;;;;;;4993850;28;20113;-83
2024/01/24 08:39:28;;;;;;;0.88;0.68;;;;;;;;;;5019908;22;20570;-87
2024/01/24 08:41:53;;;;;;;0.75;0.50;;;;;;;;;;4996477;28;20022;-87
2024/01/24 08:44:19;;;;;;;0.90;0.70;;;;;;;;;;5011599;28;20042;-86
2024/01/24 08:46:44;;;;;;;0.75;0.60;;;;;;;;;;4996073;28;20109;-86
2024/01/24 08:49:12;;;;;;;0.88;0.63;;;;;;;;;;4995588;28;20058;-88
2024/01/24 08:51:38;;;;;;;1.67;0.80;;;;;;;;;;4993516;28;20046;-87
2024/01/24 08:54:04;;;;;;;0.73;0.60;;;;;;;;;;4994990;28;20034;-88
2024/01/24 08:56:30;;;;;;;0.50;0.50;;;;;;;;;;4995469;28;20030;-88
2024/01/24 08:58:55;;;;;;;0.75;0.50;;;;;;;;;;4995638;28;20042;-87
2024/01/24 09:01:21;;;;;;;0.75;0.55;;;;;;;;;;4993118;28;20085;-87
2024/01/24 09:03:48;;;;;;;0.70;0.60;;;;;;;;;;4994164;28;20038;-86
2024/01/24 09:06:15;;;;;;;0.80;0.60;;;;;;;;;;4991969;28;20033;-87
2024/01/24 09:08:41;;;;;;;1.05;0.50;;;;;;;;;;4994369;28;20038;-87
2024/01/24 09:11:07;;;;;;;0.75;0.50;;;;;;;;;;4995321;28;20042;-82
2024/01/24 09:13:32;;;;;;;1.60;0.60;;;;;;;;;;4996134;28;20038;-87
2024/01/24 09:15:58;;;;;;;0.50;0.50;;;;;;;;;;4998589;28;20045;-86
2024/01/24 09:18:23;;;;;;;0.95;0.40;;;;;;;;;;5006231;28;20049;-86
2024/01/24 09:20:49;;;;;;;0.52;0.50;;;;;;;;;;4996749;28;20041;-87
2024/01/24 09:23:14;;;;;;;1.08;0.57;;;;;;;;;;4995835;28;20050;-87
2024/01/24 09:25:40;;;;;;;0.85;0.50;;;;;;;;;;4997610;28;20041;-87
2024/01/24 09:28:08;;;;;;;0.40;0.38;;;;;;;;;;5012906;28;20535;-86
2024/01/24 09:30:34;;;;;;;0.50;0.50;;;;;;;;;;4999382;28;20042;-88
2024/01/24 09:33:00;;;;;;;0.60;0.47;;;;;;;;;;4998830;28;20031;-86
2024/01/24 09:35:25;;;;;;;0.80;0.70;;;;;;;;;;4995535;28;20118;-87
2024/01/24 09:37:51;;;;;;;0.88;0.40;;;;;;;;;;4996128;28;20579;-87
2024/01/24 09:40:17;;;;;;;1.17;0.50;;;;;;;;;;4998572;28;20522;-85
2024/01/24 09:42:44;;;;;;;1.02;0.57;;;;;;;;;;4995733;28;20069;-87
2024/01/24 09:45:09;;;;;;;0.60;0.50;;;;;;;;;;4996538;28;20041;-86
2024/01/24 09:47:37;;;;;;;0.52;0.50;;;;;;;;;;4996261;28;20038;-88
2024/01/24 09:50:04;;;;;;;0.68;0.50;;;;;;;;;;4998363;28;20037;-90
2024/01/24 09:52:32;;;;;;;0.85;0.50;;;;;;;;;;4997658;28;20033;-87
2024/01/24 09:55:00;;;;;;;1.67;1.00;;;;;;;;;;4998926;28;20037;-86
2024/01/24 09:57:26;;;;;;;0.82;0.50;;;;;;;;;;4997534;28;20500;-90
2024/01/24 09:59:53;;;;;;;1.83;0.47;;;;;;;;;;4998082;28;20038;-86
2024/01/24 10:02:18;;;;;;;0.63;0.43;;;;;;;;;;4997016;28;20034;-86
2024/01/24 10:04:44;;;;;;;0.40;0.40;;;;;;;;;;4995972;28;20110;-85
2024/01/24 10:07:10;;;;;;;0.77;0.50;;;;;;;;;;4997320;28;20037;-86
2024/01/24 10:09:36;;;;;;;0.68;0.50;;;;;;;;;;4998676;28;20034;-87
2024/01/24 10:12:03;;;;;;;0.55;0.40;;;;;;;;;;4997979;28;20408;-86
2024/01/24 10:14:29;;;;;;;0.70;0.50;;;;;;;;;;4999800;28;20034;-88
2024/01/24 10:16:55;;;;;;;1.42;0.68;;;;;;;;;;4993782;28;20034;-87
2024/01/24 10:19:24;;;;;;;1.48;0.50;;;;;;;;;;4998695;28;20069;-88
2024/01/24 10:21:51;;;;;;;0.52;0.43;;;;;;;;;;4997713;28;20393;-88
2024/01/24 10:24:16;;;;;;;1.52;0.50;;;;;;;;;;4994014;28;20412;-88
2024/01/24 10:26:44;;;;;;;0.65;0.40;;;;;;;;;;4995914;28;20121;-87
2024/01/24 10:29:13;;;;;;;0.55;0.45;;;;;;;;;;4998518;28;20069;-87
2024/01/24 10:31:38;;;;;;;0.60;0.52;;;;;;;;;;5014117;28;20075;-87
2024/01/24 10:34:05;;;;;;;0.95;0.40;;;;;;;;;;4998956;28;20030;-88
2024/01/24 10:36:32;;;;;;;0.47;0.47;;;;;;;;;;4988451;28;20042;-87
2024/01/24 10:39:03;;;;;;;2.08;0.43;;;;;;;;;;4998574;28;20046;-87
2024/01/24 10:41:38;;;;;;;0.80;0.63;;;;;;;;;;4997535;28;20038;-87
2024/01/24 10:44:09;;;;;;;0.77;0.40;;;;;;;;;;4998335;28;20041;-87
2024/01/24 10:46:40;;;;;;;1.20;0.40;;;;;;;;;;5014179;28;20084;-88
2024/01/24 10:49:07;;;;;;;0.65;0.50;;;;;;;;;;4995690;28;20038;-87
2024/01/24 10:51:33;;;;;;;1.30;0.50;;;;;;;;;;4996454;28;20038;-88
2024/01/24 10:54:01;;;;;;;0.57;0.40;;;;;;;;;;4997426;28;20058;-88
2024/01/24 10:56:29;;;;;;;0.73;0.40;;;;;;;;;;4996949;28;20177;-86
2024/01/24 10:58:56;;;;;;;0.85;0.40;;;;;;;;;;4999957;28;20038;-89
2024/01/24 11:01:22;;;;;;;0.32;0.32;;;;;;;;;;5000390;28;20038;-87
2024/01/24 11:03:49;;;;;;;0.52;0.40;;;;;;;;;;4998545;28;20093;-87
2024/01/24 11:06:17;;;;;;;1.02;0.65;;;;;;;;;;5005434;28;20121;-86
2024/01/24 11:08:56;;;;;;;0.85;0.40;;;;;;;;;;4995721;28;20085;-85
2024/01/24 11:11:23;;;;;;;0.50;0.50;;;;;;;;;;5008183;28;20037;-87
2024/01/24 11:13:51;;;;;;;0.30;0.30;;;;;;;;;;5001906;28;20026;-89
2024/01/24 11:16:25;;;;;;;1.52;0.60;;;;;;;;;;4996554;28;20105;-87
2024/01/24 11:18:51;;;;;;;0.90;0.30;;;;;;;;;;5003060;28;20049;-86
2024/01/24 11:21:21;;;;;;;0.50;0.50;;;;;;;;;;4997120;28;20025;-86
2024/01/24 11:23:48;;;;;;;0.80;0.52;;;;;;;;;;4996864;28;20034;-87
2024/01/24 11:26:16;;;;;;;0.90;0.60;;;;;;;;;;4995659;28;20034;-90
2024/01/24 11:28:42;;;;;;;1.00;0.50;;;;;;;;;;4996746;28;20113;-87
2024/01/24 11:31:09;;;;;;;0.63;0.52;;;;;;;;;;4998452;28;20546;-88
2024/01/24 11:33:34;;;;;;;0.52;0.52;;;;;;;;;;4997031;28;20503;-86
2024/01/24 11:36:05;;;;;;;0.70;0.50;;;;;;;;;;5004989;28;20034;-88
2024/01/24 11:38:35;;;;;;;2.28;0.50;;;;;;;;;;5008158;28;20034;-87
2024/01/24 11:41:07;;;;;;;1.05;0.60;;;;;;;;;;4990189;28;20034;-88
2024/01/24 11:43:34;;;;;;;0.47;0.40;;;;;;;;;;4989060;28;20030;-88
2024/01/24 11:46:04;;;;;;;1.02;0.60;;;;;;;;;;4998194;28;20031;-86
2024/01/24 11:48:31;;;;;;;0.65;0.47;;;;;;;;;;4998014;28;20036;-87
2024/01/24 11:51:01;;;;;;;0.65;0.45;;;;;;;;;;4991473;28;20037;-84
2024/01/24 11:53:27;;;;;;;0.50;0.43;;;;;;;;;;4994180;28;20407;-87
2024/01/24 11:56:04;;;;;;;0.93;0.40;;;;;;;;;;4996654;28;20105;-87
2024/01/24 11:58:30;;;;;;;0.65;0.52;;;;;;;;;;4991964;28;20072;-88
2024/01/24 12:01:03;;;;;;;0.70;0.50;;;;;;;;;;4997581;28;20034;-90
2024/01/24 12:03:29;;;;;;;0.40;0.40;;;;;;;;;;4988466;28;20053;-90
2024/01/24 12:05:55;;;;;;;0.47;0.45;;;;;;;;;;4997309;28;20047;-89
2024/01/24 12:08:21;;;;;;;0.50;0.47;;;;;;;;;;5000798;28;20045;-90
2024/01/24 12:10:47;;;;;;;3.22;0.55;;;;;;;;;;4998609;28;20036;-88
2024/01/24 12:13:13;;;;;;;3.95;0.68;;;;;;;;;;4995457;28;20483;-86
2024/01/24 12:15:40;;;;;;;1.17;0.70;;;;;;;;;;4995950;28;20042;-87
2024/01/24 12:18:09;;;;;;;1.60;0.80;;;;;;;;;;4995824;28;20061;-87
2024/01/24 12:20:36;;;;;;;0.65;0.50;;;;;;;;;;4995580;28;20050;-85
2024/01/24 12:23:07;;;;;;;0.88;0.43;;;;;;;;;;4993187;28;20038;-88
2024/01/24 12:25:32;;;;;;;0.82;0.60;;;;;;;;;;4996583;28;20018;-89
2024/01/24 12:27:58;;;;;;;1.02;0.50;;;;;;;;;;5003363;28;20393;-87
2024/01/24 12:30:32;;;;;;;1.08;0.50;;;;;;;;;;4995777;28;20039;-87
2024/01/24 12:32:59;;;;;;;0.52;0.40;;;;;;;;;;4993759;28;20034;-87
2024/01/24 12:35:25;;;;;;;0.85;0.40;;;;;;;;;;4994982;28;20034;-87
2024/01/24 12:37:51;;;;;;;1.48;0.40;;;;;;;;;;4995235;28;20049;-85
2024/01/24 12:40:17;;;;;;;0.73;0.47;;;;;;;;;;5006986;28;20150;-87
2024/01/24 12:42:43;;;;;;;0.25;0.20;;;;;;;;;;4993179;28;20042;-86
2024/01/24 12:45:13;;;;;;;0.93;0.40;;;;;;;;;;4990574;28;20031;-88
2024/01/24 12:47:40;;;;;;;0.60;0.50;;;;;;;;;;4995005;28;20049;-91
2024/01/24 12:50:06;;;;;;;1.05;0.40;;;;;;;;;;4983672;28;20061;-90
2024/01/24 12:52:32;;;;;;;0.30;0.30;;;;;;;;;;4991055;28;20034;-90
2024/01/24 12:54:57;;;;;;;0.25;0.20;;;;;;;;;;4987824;28;20049;-90
2024/01/24 12:57:24;;;;;;;1.02;0.50;;;;;;;;;;5001229;28;20045;-90
2024/01/24 12:59:50;;;;;;;0.30;0.30;;;;;;;;;;4991467;28;20042;-90
2024/01/24 13:02:17;;;;;;;1.25;0.40;;;;;;;;;;4989947;28;20031;-89
2024/01/24 13:04:43;;;;;;;0.90;0.40;;;;;;;;;;5009773;28;20110;-90
2024/01/24 13:07:10;;;;;;;0.52;0.40;;;;;;;;;;4990945;28;20423;-90
2024/01/24 13:09:35;;;;;;;0.32;0.32;;;;;;;;;;4996582;28;20049;-90
2024/01/24 13:12:01;;;;;;;0.30;0.30;;;;;;;;;;4998755;28;20708;-90
2024/01/24 13:14:26;;;;;;;0.30;0.30;;;;;;;;;;4996071;28;20058;-90
2024/01/24 13:16:52;;;;;;;1.10;0.47;;;;;;;;;;4994801;28;20041;-92
2024/01/24 13:19:17;;;;;;;1.13;0.40;;;;;;;;;;4990826;28;20400;-91
2024/01/24 13:21:43;;;;;;;0.55;0.40;;;;;;;;;;4993584;28;20057;-89
2024/01/24 13:24:09;;;;;;;1.08;0.30;;;;;;;;;;4994905;28;20033;-90
2024/01/24 13:26:34;;;;;;;1.40;0.50;;;;;;;;;;4995495;28;20034;-90
2024/01/24 13:29:00;;;;;;;0.82;0.38;;;;;;;;;;4994845;28;20049;-91
2024/01/24 13:31:25;;;;;;;0.70;0.50;;;;;;;;;;4997100;28;20038;-90
2024/01/24 13:33:51;;;;;;;0.30;0.30;;;;;;;;;;4989393;28;20500;-90
2024/01/24 13:36:18;;;;;;;0.30;0.25;;;;;;;;;;4992916;28;20035;-90
2024/01/24 13:38:44;;;;;;;0.30;0.30;;;;;;;;;;4992301;28;20138;-90
2024/01/24 13:41:13;;;;;;;0.82;0.43;;;;;;;;;;5011567;28;20070;-90
2024/01/24 13:43:39;;;;;;;0.88;0.30;;;;;;;;;;4994581;28;20048;-89
2024/01/24 13:46:05;;;;;;;0.20;0.20;;;;;;;;;;4996473;28;20057;-88
2024/01/24 13:48:31;;;;;;;1.30;0.45;;;;;;;;;;4995961;28;20049;-85
2024/01/24 13:50:57;;;;;;;0.40;0.40;;;;;;;;;;4994958;28;20400;-83
2024/01/24 13:53:23;;;;;;;0.30;0.30;;;;;;;;;;4992140;28;20042;-86
2024/01/24 13:55:48;;;;;;;0.60;0.50;;;;;;;;;;4994189;28;20042;-84
2024/01/24 13:58:14;;;;;;;0.45;0.40;;;;;;;;;;4992551;28;20057;-85
2024/01/24 14:00:39;;;;;;;1.23;0.40;;;;;;;;;;4995174;28;20050;-84
2024/01/24 14:03:05;;;;;;;0.38;0.30;;;;;;;;;;4996079;28;20496;-88
2024/01/24 14:05:31;;;;;;;0.95;0.32;;;;;;;;;;4994687;28;20065;-87
2024/01/24 14:07:56;;;;;;;0.30;0.30;;;;;;;;;;4991622;28;20065;-86
2024/01/24 14:10:22;;;;;;;0.40;0.35;;;;;;;;;;4995642;28;20411;-87
2024/01/24 14:12:47;;;;;;;0.52;0.45;;;;;;;;;;4992412;28;20030;-87
2024/01/24 14:15:13;;;;;;;1.13;0.68;;;;;;;;;;4992072;28;20050;-87
2024/01/24 14:17:38;;;;;;;2.47;0.50;;;;;;;;;;4985969;28;20039;-87
2024/01/24 14:20:04;;;;;;;0.77;0.50;;;;;;;;;;4991888;28;20076;-88
2024/01/24 14:22:31;;;;;;;0.57;0.40;;;;;;;;;;5000574;28;20062;-87
2024/01/24 14:24:56;;;;;;;0.60;0.38;;;;;;;;;;4991964;28;20097;-85
2024/01/24 14:27:25;;;;;;;1.08;0.40;;;;;;;;;;4993881;28;20444;-86
2024/01/24 14:29:52;;;;;;;1.65;0.45;;;;;;;;;;4993060;28;20030;-87
2024/01/24 14:32:19;;;;;;;0.30;0.30;;;;;;;;;;4994942;28;20042;-86
2024/01/24 14:34:44;;;;;;;0.98;0.40;;;;;;;;;;4984873;28;20121;-87
2024/01/24 14:37:10;;;;;;;0.52;0.40;;;;;;;;;;4987783;28;20165;-86